createdAt,value
2023-02-20T00:00:02.255Z,528.00
2023-02-20T00:01:02.234Z,527.00
2023-02-20T00:02:02.209Z,523.00
2023-02-20T00:03:02.194Z,528.00
2023-02-20T00:04:02.162Z,527.00
2023-02-20T00:05:02.150Z,527.00
2023-02-20T00:54:50.974Z,500.00
2023-02-20T00:55:51.916Z,500.00
2023-02-20T00:56:51.864Z,500.00
2023-02-20T00:57:51.813Z,500.00
2023-02-20T00:58:51.756Z,500.00
2023-02-20T00:59:51.710Z,500.00
2023-02-20T01:00:51.660Z,438.00
2023-02-20T01:01:51.633Z,405.00
2023-02-20T01:02:51.601Z,400.00
2023-02-20T01:03:51.489Z,402.00
2023-02-20T01:04:51.440Z,411.00
2023-02-20T01:05:51.393Z,438.00
2023-02-20T01:06:51.344Z,469.00
2023-02-20T01:07:51.295Z,496.00
2023-02-20T01:08:51.254Z,500.00
2023-02-20T01:09:51.201Z,500.00
2023-02-20T01:10:51.159Z,501.00
2023-02-20T01:11:51.113Z,500.00
2023-02-20T01:12:51.070Z,500.00
2023-02-20T01:13:51.005Z,501.00
2023-02-20T01:14:50.951Z,503.00
2023-02-20T01:15:50.921Z,500.00
2023-02-20T01:16:50.851Z,501.00
2023-02-20T01:17:50.805Z,502.00
2023-02-20T01:18:50.753Z,500.00
2023-02-20T01:19:50.711Z,500.00
2023-02-20T01:20:50.650Z,502.00
2023-02-20T01:21:50.594Z,501.00
2023-02-20T01:22:50.538Z,500.00
2023-02-20T01:23:50.497Z,504.00
2023-02-20T01:24:50.436Z,501.00
2023-02-20T01:25:50.388Z,503.00
2023-02-20T01:26:50.344Z,502.00
2023-02-20T01:27:50.294Z,504.00
2023-02-20T01:28:50.249Z,500.00
2023-02-20T01:29:50.187Z,502.00
2023-02-20T01:30:50.136Z,501.00
2023-02-20T01:31:50.181Z,502.00
2023-02-20T01:32:50.030Z,504.00
2023-02-20T01:33:49.983Z,501.00
2023-02-20T01:34:49.935Z,500.00
2023-02-20T01:35:49.878Z,502.00
2023-02-20T01:36:49.834Z,501.00
2023-02-20T01:37:49.778Z,500.00
2023-02-20T01:38:49.728Z,500.00
2023-02-20T01:39:49.685Z,500.00
2023-02-20T01:40:49.644Z,501.00
2023-02-20T01:41:49.596Z,501.00
2023-02-20T01:42:49.553Z,504.00
2023-02-20T01:43:49.516Z,504.00
2023-02-20T01:44:49.469Z,505.00
2023-02-20T01:45:49.438Z,501.00
2023-02-20T01:46:49.570Z,502.00
2023-02-20T01:47:49.334Z,501.00
2023-02-20T01:48:49.299Z,501.00
2023-02-20T01:49:49.251Z,502.00
2023-02-20T01:50:49.204Z,500.00
2023-02-20T01:51:49.160Z,503.00
2023-02-20T01:52:49.108Z,503.00
2023-02-20T01:53:49.055Z,503.00
2023-02-20T01:54:49.017Z,500.00
2023-02-20T01:55:48.971Z,502.00
2023-02-20T01:56:48.958Z,502.00
2023-02-20T01:57:48.879Z,502.00
2023-02-20T01:58:48.841Z,503.00
2023-02-20T01:59:48.803Z,500.00
2023-02-20T02:00:48.830Z,503.00
2023-02-20T02:01:48.806Z,502.00
2023-02-20T02:02:48.675Z,505.00
2023-02-20T02:03:48.636Z,506.00
2023-02-20T02:04:48.618Z,500.00
2023-02-20T02:05:48.560Z,506.00
2023-02-20T02:06:48.502Z,505.00
2023-02-20T02:07:48.552Z,500.00
2023-02-20T02:08:48.418Z,501.00
2023-02-20T02:09:48.372Z,503.00
2023-02-20T02:10:48.331Z,504.00
2023-02-20T02:11:48.281Z,506.00
2023-02-20T02:12:48.295Z,504.00
2023-02-20T02:13:48.202Z,503.00
2023-02-20T02:14:48.164Z,506.00
2023-02-20T02:15:48.142Z,508.00
2023-02-20T02:16:48.095Z,505.00
2023-02-20T02:17:48.058Z,505.00
2023-02-20T02:18:48.007Z,501.00
2023-02-20T02:19:47.972Z,503.00
2023-02-20T02:20:47.921Z,503.00
2023-02-20T02:21:47.855Z,502.00
2023-02-20T02:22:47.818Z,505.00
2023-02-20T02:23:47.779Z,501.00
2023-02-20T02:24:47.743Z,501.00
2023-02-20T02:25:47.740Z,501.00
2023-02-20T02:26:47.670Z,504.00
2023-02-20T02:27:47.610Z,502.00
2023-02-20T02:28:47.576Z,502.00
2023-02-20T02:29:47.522Z,503.00
2023-02-20T02:30:47.482Z,507.00
2023-02-20T02:31:47.474Z,506.00
2023-02-20T02:32:47.352Z,503.00
2023-02-20T02:33:47.305Z,503.00
2023-02-20T02:34:47.286Z,502.00
2023-02-20T02:35:47.221Z,506.00
2023-02-20T02:36:47.172Z,505.00
2023-02-20T02:37:47.130Z,504.00
2023-02-20T02:38:47.108Z,502.00
2023-02-20T02:39:47.025Z,507.00
2023-02-20T02:40:46.979Z,505.00
2023-02-20T02:41:46.934Z,502.00
2023-02-20T02:42:46.897Z,504.00
2023-02-20T02:43:46.856Z,501.00
2023-02-20T02:44:46.834Z,500.00
2023-02-20T02:45:46.797Z,503.00
2023-02-20T02:46:46.732Z,502.00
2023-02-20T02:47:46.685Z,505.00
2023-02-20T02:48:46.638Z,504.00
2023-02-20T02:49:46.617Z,503.00
2023-02-20T02:50:46.560Z,505.00
2023-02-20T02:51:46.507Z,506.00
2023-02-20T02:52:46.505Z,505.00
2023-02-20T02:53:46.412Z,500.00
2023-02-20T02:54:46.397Z,504.00
2023-02-20T02:55:46.363Z,501.00
2023-02-20T02:56:46.265Z,500.00
2023-02-20T02:57:46.217Z,504.00
2023-02-20T02:58:46.181Z,504.00
2023-02-20T02:59:46.127Z,501.00
2023-02-20T03:00:46.123Z,504.00
2023-02-20T03:01:46.043Z,503.00
2023-02-20T03:02:46.088Z,500.00
2023-02-20T03:03:45.950Z,502.00
2023-02-20T03:04:45.902Z,504.00
2023-02-20T03:05:45.945Z,504.00
2023-02-20T03:06:45.804Z,502.00
2023-02-20T03:07:45.745Z,502.00
2023-02-20T03:08:45.689Z,507.00
2023-02-20T03:09:45.634Z,504.00
2023-02-20T03:10:45.606Z,501.00
2023-02-20T03:11:45.530Z,503.00
2023-02-20T03:12:45.489Z,504.00
2023-02-20T03:13:45.467Z,503.00
2023-02-20T03:14:45.386Z,504.00
2023-02-20T03:15:45.340Z,505.00
2023-02-20T03:16:45.324Z,506.00
2023-02-20T03:17:45.241Z,506.00
2023-02-20T03:18:45.187Z,504.00
2023-02-20T03:19:45.139Z,501.00
2023-02-20T03:20:45.110Z,503.00
2023-02-20T03:21:45.086Z,505.00
2023-02-20T03:22:45.014Z,505.00
2023-02-20T03:23:44.978Z,502.00
2023-02-20T03:24:44.962Z,501.00
2023-02-20T03:25:44.877Z,505.00
2023-02-20T03:26:44.873Z,504.00
2023-02-20T03:27:44.796Z,506.00
2023-02-20T03:28:44.755Z,501.00
2023-02-20T03:29:44.712Z,501.00
2023-02-20T03:30:44.688Z,504.00
2023-02-20T03:31:44.751Z,505.00
2023-02-20T03:32:44.567Z,502.00
2023-02-20T03:33:44.517Z,502.00
2023-02-20T03:34:44.494Z,507.00
2023-02-20T03:35:44.451Z,504.00
2023-02-20T03:36:44.386Z,507.00
2023-02-20T03:37:44.336Z,508.00
2023-02-20T03:38:44.297Z,501.00
2023-02-20T03:39:44.238Z,504.00
2023-02-20T03:40:44.186Z,508.00
2023-02-20T03:41:44.147Z,500.00
2023-02-20T03:42:44.125Z,505.00
2023-02-20T03:43:44.072Z,503.00
2023-02-20T03:44:44.005Z,505.00
2023-02-20T03:45:44.001Z,507.00
2023-02-20T03:46:43.925Z,508.00
2023-02-20T03:47:43.882Z,509.00
2023-02-20T03:48:43.865Z,510.00
2023-02-20T03:49:43.789Z,506.00
2023-02-20T03:50:43.760Z,504.00
2023-02-20T03:51:43.706Z,506.00
2023-02-20T03:52:43.659Z,506.00
2023-02-20T03:53:43.680Z,505.00
2023-02-20T03:54:43.562Z,504.00
2023-02-20T03:55:43.511Z,506.00
2023-02-20T03:56:43.532Z,509.00
2023-02-20T03:57:43.436Z,510.00
2023-02-20T03:58:43.408Z,511.00
2023-02-20T03:59:43.357Z,508.00
2023-02-20T04:00:43.309Z,510.00
2023-02-20T04:01:43.313Z,506.00
2023-02-20T04:02:43.225Z,506.00
2023-02-20T04:03:43.177Z,507.00
2023-02-20T04:04:43.135Z,503.00
2023-02-20T04:05:43.097Z,505.00
2023-02-20T04:06:43.091Z,506.00
2023-02-20T04:07:43.047Z,505.00
2023-02-20T04:08:42.999Z,506.00
2023-02-20T04:09:42.946Z,507.00
2023-02-20T04:10:42.992Z,507.00
2023-02-20T04:11:42.893Z,505.00
2023-02-20T04:12:42.797Z,510.00
2023-02-20T04:13:42.756Z,506.00
2023-02-20T04:14:42.809Z,511.00
2023-02-20T04:15:42.651Z,506.00
2023-02-20T04:16:42.680Z,509.00
2023-02-20T04:17:42.565Z,509.00
2023-02-20T04:18:42.505Z,507.00
2023-02-20T04:19:42.471Z,508.00
2023-02-20T04:20:42.394Z,506.00
2023-02-20T04:21:42.365Z,508.00
2023-02-20T04:22:42.305Z,502.00
2023-02-20T04:23:42.248Z,509.00
2023-02-20T04:24:42.204Z,503.00
2023-02-20T04:25:42.165Z,506.00
2023-02-20T04:26:42.107Z,505.00
2023-02-20T04:27:42.061Z,505.00
2023-02-20T04:28:42.004Z,500.00
2023-02-20T04:29:41.948Z,506.00
2023-02-20T04:30:42.042Z,505.00
2023-02-20T04:31:41.961Z,500.00
2023-02-20T04:32:41.949Z,505.00
2023-02-20T04:33:41.741Z,506.00
2023-02-20T04:34:41.709Z,505.00
2023-02-20T04:35:41.643Z,506.00
2023-02-20T04:36:41.596Z,504.00
2023-02-20T04:37:41.596Z,505.00
2023-02-20T04:38:41.488Z,504.00
2023-02-20T04:39:41.460Z,504.00
2023-02-20T04:40:41.405Z,507.00
2023-02-20T04:41:41.365Z,511.00
2023-02-20T04:42:41.355Z,506.00
2023-02-20T04:43:41.255Z,505.00
2023-02-20T04:44:41.213Z,501.00
2023-02-20T04:45:41.160Z,506.00
2023-02-20T04:46:41.147Z,507.00
2023-02-20T04:47:41.094Z,507.00
2023-02-20T04:48:41.065Z,503.00
2023-02-20T04:49:40.979Z,504.00
2023-02-20T04:50:40.930Z,500.00
2023-02-20T04:51:40.888Z,501.00
2023-02-20T04:52:40.837Z,505.00
2023-02-20T04:53:40.788Z,502.00
2023-02-20T04:54:40.731Z,505.00
2023-02-20T04:55:40.680Z,502.00
2023-02-20T04:56:40.630Z,505.00
2023-02-20T04:57:40.615Z,506.00
2023-02-20T04:58:40.635Z,509.00
2023-02-20T04:59:40.484Z,509.00
2023-02-20T05:00:40.452Z,507.00
2023-02-20T05:01:40.488Z,507.00
2023-02-20T05:02:40.398Z,509.00
2023-02-20T05:03:40.333Z,509.00
2023-02-20T05:04:40.359Z,511.00
2023-02-20T05:05:40.250Z,509.00
2023-02-20T05:06:40.202Z,507.00
2023-02-20T05:07:40.149Z,506.00
2023-02-20T05:08:40.109Z,508.00
2023-02-20T05:09:40.066Z,508.00
2023-02-20T05:10:40.026Z,504.00
2023-02-20T05:11:39.966Z,505.00
2023-02-20T05:12:39.924Z,506.00
2023-02-20T05:13:39.891Z,503.00
2023-02-20T05:14:40.303Z,505.00
2023-02-20T05:15:39.890Z,504.00
2023-02-20T05:16:39.760Z,506.00
2023-02-20T05:17:39.705Z,505.00
2023-02-20T05:18:39.684Z,509.00
2023-02-20T05:19:39.593Z,507.00
2023-02-20T05:20:39.551Z,508.00
2023-02-20T05:21:39.491Z,510.00
2023-02-20T05:22:39.449Z,509.00
2023-02-20T05:23:39.407Z,511.00
2023-02-20T05:24:39.354Z,511.00
2023-02-20T05:25:39.309Z,513.00
2023-02-20T05:26:39.262Z,513.00
2023-02-20T05:27:39.223Z,512.00
2023-02-20T05:28:39.163Z,516.00
2023-02-20T05:29:39.114Z,513.00
2023-02-20T05:30:39.095Z,517.00
2023-02-20T05:31:39.101Z,513.00
2023-02-20T05:32:38.967Z,516.00
2023-02-20T05:33:38.936Z,514.00
2023-02-20T05:34:38.912Z,511.00
2023-02-20T05:35:38.840Z,513.00
2023-02-20T05:36:38.806Z,508.00
2023-02-20T05:37:38.745Z,510.00
2023-02-20T05:38:38.717Z,515.00
2023-02-20T05:39:38.658Z,512.00
2023-02-20T05:40:38.594Z,512.00
2023-02-20T05:41:38.544Z,509.00
2023-02-20T05:42:38.514Z,510.00
2023-02-20T05:43:38.458Z,514.00
2023-02-20T05:44:38.410Z,509.00
2023-02-20T05:45:38.368Z,515.00
2023-02-20T05:46:38.356Z,513.00
2023-02-20T05:47:38.296Z,513.00
2023-02-20T05:48:38.234Z,514.00
2023-02-20T05:49:38.185Z,514.00
2023-02-20T05:50:38.165Z,512.00
2023-02-20T05:51:38.109Z,513.00
2023-02-20T05:52:38.059Z,512.00
2023-02-20T05:53:38.037Z,516.00
2023-02-20T05:54:37.964Z,518.00
2023-02-20T05:55:37.911Z,518.00
2023-02-20T05:56:37.863Z,512.00
2023-02-20T05:57:37.810Z,515.00
2023-02-20T05:58:37.816Z,515.00
2023-02-20T05:59:37.721Z,516.00
2023-02-20T06:00:37.716Z,516.00
2023-02-20T06:01:37.636Z,517.00
2023-02-20T06:02:37.588Z,518.00
2023-02-20T06:03:38.235Z,514.00
2023-02-20T06:04:37.548Z,521.00
2023-02-20T06:05:37.459Z,515.00
2023-02-20T06:06:37.448Z,519.00
2023-02-20T06:07:37.367Z,516.00
2023-02-20T06:08:37.835Z,520.00
2023-02-20T06:09:37.274Z,520.00
2023-02-20T06:10:37.228Z,518.00
2023-02-20T06:11:37.197Z,516.00
2023-02-20T06:12:37.145Z,518.00
2023-02-20T06:13:37.344Z,518.00
2023-02-20T06:14:37.060Z,517.00
2023-02-20T06:15:37.016Z,520.00
2023-02-20T06:16:37.033Z,520.00
2023-02-20T06:17:36.918Z,519.00
2023-02-20T06:18:36.878Z,521.00
2023-02-20T06:19:37.318Z,516.00
2023-02-20T06:20:36.794Z,519.00
2023-02-20T06:21:36.769Z,518.00
2023-02-20T06:22:36.761Z,519.00
2023-02-20T06:23:36.851Z,516.00
2023-02-20T06:24:36.610Z,523.00
2023-02-20T06:25:36.567Z,524.00
2023-02-20T06:26:36.522Z,524.00
2023-02-20T06:27:36.477Z,525.00
2023-02-20T06:28:36.422Z,530.00
2023-02-20T06:29:36.828Z,530.00
2023-02-20T06:30:36.352Z,531.00
2023-02-20T06:31:36.409Z,531.00
2023-02-20T06:32:36.220Z,533.00
2023-02-20T06:33:36.175Z,534.00
2023-02-20T06:34:36.374Z,535.00
2023-02-20T06:35:36.096Z,536.00
2023-02-20T06:36:36.083Z,537.00
2023-02-20T06:37:36.003Z,536.00
2023-02-20T06:38:35.963Z,539.00
2023-02-20T06:39:36.354Z,539.00
2023-02-20T06:40:35.826Z,537.00
2023-02-20T06:41:36.252Z,543.00
2023-02-20T06:42:35.772Z,538.00
2023-02-20T06:43:35.684Z,541.00
2023-02-20T06:44:35.844Z,543.00
2023-02-20T06:45:35.587Z,544.00
2023-02-20T06:46:35.564Z,544.00
2023-02-20T06:47:35.486Z,547.00
2023-02-20T06:48:35.455Z,549.00
2023-02-20T06:49:35.844Z,555.00
2023-02-20T06:50:35.361Z,566.00
2023-02-20T06:51:36.313Z,576.00
2023-02-20T06:52:35.302Z,586.00
2023-02-20T06:53:35.226Z,589.00
2023-02-20T06:54:35.464Z,590.00
2023-02-20T06:55:35.147Z,595.00
2023-02-20T06:56:39.045Z,620.00
2023-02-20T06:57:35.051Z,621.00
2023-02-20T06:58:34.992Z,623.00
2023-02-20T06:59:35.387Z,626.00
2023-02-20T07:00:34.924Z,632.00
2023-02-20T07:01:34.833Z,642.00
2023-02-20T07:02:35.785Z,644.00
2023-02-20T07:03:34.729Z,647.00
2023-02-20T07:04:38.261Z,649.00
2023-02-20T07:05:34.606Z,649.00
2023-02-20T07:06:34.587Z,651.00
2023-02-20T07:07:34.546Z,652.00
2023-02-20T07:08:34.504Z,654.00
2023-02-20T07:09:34.943Z,658.00
2023-02-20T07:10:34.398Z,656.00
2023-02-20T07:11:34.332Z,658.00
2023-02-20T07:12:34.260Z,658.00
2023-02-20T07:13:34.206Z,654.00
2023-02-20T07:14:34.175Z,656.00
2023-02-20T07:15:34.117Z,656.00
2023-02-20T07:16:34.083Z,658.00
2023-02-20T07:17:34.009Z,658.00
2023-02-20T07:18:34.348Z,658.00
2023-02-20T07:19:33.928Z,656.00
2023-02-20T07:20:33.879Z,653.00
2023-02-20T07:21:34.051Z,657.00
2023-02-20T07:22:33.849Z,660.00
2023-02-20T07:23:33.820Z,655.00
2023-02-20T07:24:33.718Z,653.00
2023-02-20T07:25:33.851Z,653.00
2023-02-20T07:26:33.631Z,654.00
2023-02-20T07:27:33.555Z,652.00
2023-02-20T07:28:33.852Z,651.00
2023-02-20T07:29:33.456Z,650.00
2023-02-20T07:30:33.519Z,650.00
2023-02-20T07:31:33.520Z,649.00
2023-02-20T07:32:33.319Z,650.00
2023-02-20T07:33:33.350Z,649.00
2023-02-20T07:34:33.224Z,651.00
2023-02-20T07:35:33.180Z,642.00
2023-02-20T07:36:33.130Z,644.00
2023-02-20T07:37:33.074Z,645.00
2023-02-20T07:38:33.436Z,646.00
2023-02-20T07:39:33.356Z,645.00
2023-02-20T07:40:32.918Z,646.00
2023-02-20T07:41:32.896Z,644.00
2023-02-20T07:42:33.013Z,644.00
2023-02-20T07:43:32.815Z,642.00
2023-02-20T07:44:32.735Z,641.00
2023-02-20T07:45:32.761Z,642.00
2023-02-20T07:46:32.635Z,640.00
2023-02-20T07:47:32.559Z,639.00
2023-02-20T07:48:32.864Z,638.00
2023-02-20T07:49:32.476Z,640.00
2023-02-20T07:50:32.434Z,638.00
2023-02-20T07:51:32.364Z,636.00
2023-02-20T07:52:32.303Z,636.00
2023-02-20T07:53:32.363Z,636.00
2023-02-20T07:54:32.200Z,632.00
2023-02-20T07:55:32.561Z,634.00
2023-02-20T07:56:32.386Z,631.00
2023-02-20T07:57:32.064Z,631.00
2023-02-20T07:58:32.047Z,630.00
2023-02-20T07:59:31.965Z,630.00
2023-02-20T08:00:31.937Z,632.00
2023-02-20T08:01:32.519Z,629.00
2023-02-20T08:02:31.918Z,629.00
2023-02-20T08:03:31.751Z,629.00
2023-02-20T08:04:31.685Z,632.00
2023-02-20T08:05:40.126Z,626.00
2023-02-20T08:06:31.867Z,627.00
2023-02-20T08:07:31.933Z,629.00
2023-02-20T08:08:31.484Z,630.00
2023-02-20T08:09:31.422Z,630.00
2023-02-20T08:10:31.451Z,629.00
2023-02-20T08:11:31.320Z,628.00
2023-02-20T08:12:31.260Z,627.00
2023-02-20T08:13:31.366Z,629.00
2023-02-20T08:14:32.161Z,625.00
2023-02-20T08:15:31.089Z,627.00
2023-02-20T08:16:31.137Z,625.00
2023-02-20T08:17:44.435Z,626.00
2023-02-20T08:18:30.934Z,627.00
2023-02-20T08:19:31.104Z,628.00
2023-02-20T08:20:30.830Z,628.00
2023-02-20T08:21:30.913Z,623.00
2023-02-20T08:22:41.132Z,623.00
2023-02-20T08:23:31.184Z,627.00
2023-02-20T08:24:31.155Z,627.00
2023-02-20T08:25:30.542Z,627.00
2023-02-20T08:26:30.992Z,625.00
2023-02-20T08:27:31.042Z,620.00
2023-02-20T08:28:31.373Z,621.00
2023-02-20T08:29:30.353Z,622.00
2023-02-20T08:30:30.333Z,617.00
2023-02-20T08:31:32.937Z,616.00
2023-02-20T08:32:30.301Z,617.00
2023-02-20T08:33:33.345Z,618.00
2023-02-20T08:34:30.371Z,617.00
2023-02-20T08:35:30.088Z,617.00
2023-02-20T08:36:29.973Z,620.00
2023-02-20T08:37:30.934Z,626.00
2023-02-20T08:38:30.419Z,650.00
2023-02-20T08:39:29.838Z,652.00
2023-02-20T08:40:29.782Z,658.00
2023-02-20T08:41:29.732Z,658.00
2023-02-20T08:42:29.679Z,660.00
2023-02-20T08:43:29.610Z,682.00
2023-02-20T08:44:29.874Z,686.00
2023-02-20T08:45:29.591Z,705.00
2023-02-20T08:46:29.478Z,751.00
2023-02-20T08:47:29.410Z,801.00
2023-02-20T08:48:29.817Z,818.00
2023-02-20T08:49:29.569Z,863.00
2023-02-20T08:50:29.392Z,897.00
2023-02-20T08:51:29.239Z,911.00
2023-02-20T08:52:29.187Z,912.00
2023-02-20T08:53:29.116Z,932.00
2023-02-20T08:54:29.069Z,950.00
2023-02-20T08:55:29.403Z,981.00
2023-02-20T08:56:29.387Z,998.00
2023-02-20T08:57:28.921Z,1030.00
2023-02-20T08:58:28.864Z,1046.00
2023-02-20T08:59:28.815Z,1069.00
2023-02-20T09:00:28.815Z,1080.00
2023-02-20T09:01:28.912Z,1095.00
2023-02-20T09:02:28.850Z,1109.00
2023-02-20T09:03:28.602Z,1130.00
2023-02-20T09:04:28.529Z,1154.00
2023-02-20T09:05:28.482Z,1174.00
2023-02-20T09:06:29.033Z,1198.00
2023-02-20T09:07:28.390Z,1202.00
2023-02-20T09:08:28.312Z,1229.00
2023-02-20T09:09:28.261Z,1244.00
2023-02-20T09:10:28.212Z,1245.00
2023-02-20T09:11:28.181Z,1267.00
2023-02-20T09:12:28.454Z,1282.00
2023-02-20T09:13:28.012Z,1283.00
2023-02-20T09:14:27.931Z,1305.00
2023-02-20T09:15:27.888Z,1316.00
2023-02-20T09:16:28.044Z,1343.00
2023-02-20T09:17:27.757Z,1364.00
2023-02-20T09:18:27.914Z,1365.00
2023-02-20T09:19:27.680Z,1386.00
2023-02-20T09:20:27.589Z,1395.00
2023-02-20T09:21:27.891Z,1406.00
2023-02-20T09:22:27.513Z,1428.00
2023-02-20T09:23:27.890Z,1448.00
2023-02-20T09:24:27.344Z,1469.00
2023-02-20T09:25:27.280Z,1485.00
2023-02-20T09:26:27.391Z,1493.00
2023-02-20T09:27:27.176Z,1508.00
2023-02-20T09:28:27.393Z,1518.00
2023-02-20T09:29:27.037Z,1532.00
2023-02-20T09:30:27.106Z,1555.00
2023-02-20T09:31:27.077Z,1549.00
2023-02-20T09:32:27.007Z,1575.00
2023-02-20T09:33:26.895Z,1581.00
2023-02-20T09:34:26.753Z,1573.00
2023-02-20T09:35:26.643Z,1619.00
2023-02-20T09:36:26.573Z,1631.00
2023-02-20T09:37:26.508Z,1625.00
2023-02-20T09:38:26.947Z,1640.00
2023-02-20T09:39:26.423Z,1648.00
2023-02-20T09:40:26.309Z,1667.00
2023-02-20T09:41:26.242Z,1673.00
2023-02-20T09:42:26.193Z,1672.00
2023-02-20T09:43:26.123Z,1714.00
2023-02-20T09:44:26.405Z,1721.00
2023-02-20T09:45:27.065Z,1718.00
2023-02-20T09:46:26.021Z,1726.00
2023-02-20T09:47:25.906Z,1769.00
2023-02-20T09:48:25.806Z,1821.00
2023-02-20T09:49:25.739Z,1808.00
2023-02-20T09:50:25.708Z,1807.00
2023-02-20T09:51:25.617Z,1812.00
2023-02-20T09:52:25.900Z,1822.00
2023-02-20T09:53:25.494Z,1838.00
2023-02-20T09:54:25.440Z,1811.00
2023-02-20T09:55:25.378Z,1834.00
2023-02-20T09:56:26.333Z,1848.00
2023-02-20T09:57:25.421Z,1847.00
2023-02-20T09:58:25.164Z,1840.00
2023-02-20T09:59:25.458Z,1840.00
2023-02-20T10:00:25.039Z,1855.00
2023-02-20T10:01:24.991Z,1860.00
2023-02-20T10:02:25.495Z,1868.00
2023-02-20T10:03:24.893Z,1869.00
2023-02-20T10:04:24.772Z,1880.00
2023-02-20T10:05:24.703Z,1886.00
2023-02-20T10:06:24.714Z,1900.00
2023-02-20T10:07:24.990Z,1909.00
2023-02-20T10:08:24.531Z,1911.00
2023-02-20T10:09:24.465Z,1903.00
2023-02-20T10:10:24.421Z,1942.00
2023-02-20T10:11:24.360Z,1944.00
2023-02-20T10:12:24.337Z,1953.00
2023-02-20T10:13:24.421Z,1973.00
2023-02-20T10:14:24.195Z,1962.00
2023-02-20T10:15:24.122Z,1994.00
2023-02-20T10:16:24.120Z,1990.00
2023-02-20T10:17:24.000Z,2006.00
2023-02-20T10:18:24.415Z,2017.00
2023-02-20T10:19:23.916Z,2030.00
2023-02-20T10:20:23.841Z,2035.00
2023-02-20T10:21:23.778Z,2032.00
2023-02-20T10:22:23.763Z,2044.00
2023-02-20T10:23:23.672Z,2048.00
2023-02-20T10:24:23.622Z,2055.00
2023-02-20T10:25:23.577Z,2074.00
2023-02-20T10:26:23.532Z,2080.00
2023-02-20T10:27:23.450Z,2077.00
2023-02-20T10:28:23.443Z,2104.00
2023-02-20T10:29:23.427Z,2095.00
2023-02-20T10:30:23.368Z,2126.00
2023-02-20T10:31:23.322Z,2133.00
2023-02-20T10:32:23.161Z,2123.00
2023-02-20T10:33:23.427Z,2128.00
2023-02-20T10:34:23.454Z,2089.00
2023-02-20T10:35:22.974Z,2079.00
2023-02-20T10:36:22.941Z,2054.00
2023-02-20T10:37:22.839Z,1997.00
2023-02-20T10:38:22.803Z,1976.00
2023-02-20T10:39:22.979Z,1979.00
2023-02-20T10:40:22.924Z,1941.00
2023-02-20T10:41:22.600Z,1933.00
2023-02-20T10:42:22.536Z,1919.00
2023-02-20T10:43:22.924Z,1898.00
2023-02-20T10:44:22.427Z,1897.00
2023-02-20T10:45:22.460Z,1918.00
2023-02-20T10:46:22.368Z,1903.00
2023-02-20T10:47:22.226Z,1888.00
2023-02-20T10:48:22.173Z,1883.00
2023-02-20T10:49:22.114Z,1889.00
2023-02-20T10:50:22.430Z,1899.00
2023-02-20T10:51:22.227Z,1877.00
2023-02-20T10:52:33.051Z,1872.00
2023-02-20T10:53:21.881Z,1874.00
2023-02-20T10:54:21.959Z,1875.00
2023-02-20T10:55:21.930Z,1874.00
2023-02-20T10:56:21.707Z,1872.00
2023-02-20T10:57:21.657Z,1885.00
2023-02-20T10:58:21.594Z,1931.00
2023-02-20T10:59:21.927Z,1959.00
2023-02-20T11:00:21.552Z,1952.00
2023-02-20T11:01:21.591Z,1931.00
2023-02-20T11:02:21.489Z,1919.00
2023-02-20T11:03:21.305Z,1946.00
2023-02-20T11:04:21.490Z,1948.00
2023-02-20T11:05:21.204Z,1969.00
2023-02-20T11:06:21.436Z,1987.00
2023-02-20T11:07:21.100Z,1992.00
2023-02-20T11:08:21.098Z,1985.00
2023-02-20T11:09:21.925Z,1983.00
2023-02-20T11:10:20.944Z,1978.00
2023-02-20T11:11:20.954Z,1957.00
2023-02-20T11:12:20.795Z,1961.00
2023-02-20T11:13:20.725Z,1981.00
2023-02-20T11:14:27.850Z,1965.00
2023-02-20T11:15:20.688Z,1968.00
2023-02-20T11:16:20.561Z,1997.00
2023-02-20T11:17:20.494Z,2008.00
2023-02-20T11:18:20.431Z,2012.00
2023-02-20T11:19:20.435Z,2016.00
2023-02-20T11:20:20.484Z,1993.00
2023-02-20T11:21:20.259Z,1971.00
2023-02-20T11:22:20.188Z,1986.00
2023-02-20T11:23:20.127Z,1954.00
2023-02-20T11:24:20.434Z,1954.00
2023-02-20T11:25:20.022Z,1948.00
2023-02-20T11:26:23.168Z,1932.00
2023-02-20T11:27:19.900Z,1933.00
2023-02-20T11:28:19.878Z,1928.00
2023-02-20T11:29:19.947Z,1912.00
2023-02-20T11:30:19.727Z,1912.00
2023-02-20T11:31:19.789Z,1911.00
2023-02-20T11:32:20.004Z,1910.00
2023-02-20T11:33:19.533Z,1897.00
2023-02-20T11:34:19.474Z,1888.00
2023-02-20T11:35:19.424Z,1881.00
2023-02-20T11:36:21.127Z,1875.00
2023-02-20T11:37:19.288Z,1876.00
2023-02-20T11:38:19.220Z,1877.00
2023-02-20T11:39:19.147Z,1878.00
2023-02-20T11:40:19.444Z,1870.00
2023-02-20T11:41:19.045Z,1863.00
2023-02-20T11:42:19.052Z,1848.00
2023-02-20T11:43:18.969Z,1845.00
2023-02-20T11:44:18.893Z,1843.00
2023-02-20T11:45:19.504Z,1833.00
2023-02-20T11:46:18.828Z,1832.00
2023-02-20T11:47:18.739Z,1820.00
2023-02-20T11:48:18.684Z,1818.00
2023-02-20T11:49:18.636Z,1817.00
2023-02-20T11:50:20.204Z,1810.00
2023-02-20T11:51:18.952Z,1828.00
2023-02-20T11:52:18.480Z,1826.00
2023-02-20T11:53:18.443Z,1802.00
2023-02-20T11:54:21.584Z,1790.00
2023-02-20T11:55:18.322Z,1819.00
2023-02-20T11:56:18.533Z,1791.00
2023-02-20T11:57:18.226Z,1782.00
2023-02-20T11:58:18.190Z,1781.00
2023-02-20T11:59:18.096Z,1766.00
2023-02-20T12:00:18.454Z,1765.00
2023-02-20T12:01:17.981Z,1761.00
2023-02-20T12:02:18.267Z,1749.00
2023-02-20T12:03:17.872Z,1746.00
2023-02-20T12:04:17.897Z,1735.00
2023-02-20T12:05:18.551Z,1737.00
2023-02-20T12:06:17.728Z,1737.00
2023-02-20T12:07:18.090Z,1726.00
2023-02-20T12:08:17.573Z,1715.00
2023-02-20T12:09:17.518Z,1705.00
2023-02-20T12:10:17.829Z,1704.00
2023-02-20T12:11:17.507Z,1706.00
2023-02-20T12:12:17.365Z,1707.00
2023-02-20T12:13:17.457Z,1698.00
2023-02-20T12:14:17.270Z,1691.00
2023-02-20T12:15:17.203Z,1685.00
2023-02-20T12:16:17.184Z,1687.00
2023-02-20T12:17:17.100Z,1673.00
2023-02-20T12:18:17.509Z,1671.00
2023-02-20T12:19:17.003Z,1665.00
2023-02-20T12:20:16.945Z,1660.00
2023-02-20T12:21:16.918Z,1656.00
2023-02-20T12:22:16.837Z,1644.00
2023-02-20T12:23:16.783Z,1637.00
2023-02-20T12:24:16.953Z,1636.00
2023-02-20T12:25:16.670Z,1632.00
2023-02-20T12:26:16.965Z,1631.00
2023-02-20T12:27:16.590Z,1627.00
2023-02-20T12:28:16.484Z,1627.00
2023-02-20T12:29:16.428Z,1616.00
2023-02-20T12:30:16.435Z,1611.00
2023-02-20T12:31:16.441Z,1605.00
2023-02-20T12:32:16.414Z,1596.00
2023-02-20T12:33:16.181Z,1596.00
2023-02-20T12:34:16.137Z,1590.00
2023-02-20T12:35:16.080Z,1581.00
2023-02-20T12:36:16.461Z,1572.00
2023-02-20T12:37:15.978Z,1572.00
2023-02-20T12:38:15.927Z,1570.00
2023-02-20T12:39:15.872Z,1566.00
2023-02-20T12:40:15.965Z,1567.00
2023-02-20T12:41:15.767Z,1555.00
2023-02-20T12:42:15.721Z,1552.00
2023-02-20T12:43:15.681Z,1541.00
2023-02-20T12:44:15.622Z,1538.00
2023-02-20T12:45:15.582Z,1539.00
2023-02-20T12:46:15.883Z,1537.00
2023-02-20T12:47:15.465Z,1534.00
2023-02-20T12:48:15.407Z,1522.00
2023-02-20T12:49:15.471Z,1516.00
2023-02-20T12:50:15.329Z,1517.00
2023-02-20T12:51:15.248Z,1513.00
2023-02-20T12:52:15.230Z,1507.00
2023-02-20T12:53:15.470Z,1504.00
2023-02-20T12:54:15.097Z,1499.00
2023-02-20T12:55:15.033Z,1492.00
2023-02-20T12:56:15.233Z,1495.00
2023-02-20T12:57:14.929Z,1489.00
2023-02-20T12:58:14.869Z,1488.00
2023-02-20T12:59:14.860Z,1483.00
2023-02-20T13:00:14.972Z,1484.00
2023-02-20T13:01:14.834Z,1479.00
2023-02-20T13:02:14.701Z,1475.00
2023-02-20T13:03:14.609Z,1471.00
2023-02-20T13:04:14.558Z,1459.00
2023-02-20T13:05:14.981Z,1456.00
2023-02-20T13:06:14.867Z,1453.00
2023-02-20T13:07:14.365Z,1448.00
2023-02-20T13:08:14.301Z,1447.00